createdAt,value
2023-03-28T00:00:43.081Z,60.76
2023-03-28T00:03:14.609Z,60.51
2023-03-28T00:05:42.564Z,60.27
2023-03-28T00:08:11.919Z,60.58
2023-03-28T00:10:39.855Z,61.13
2023-03-28T00:13:07.809Z,61.19
2023-03-28T00:15:38.093Z,61.16
2023-03-28T00:18:08.173Z,60.34
2023-03-28T00:20:40.021Z,60.58
2023-03-28T00:23:08.126Z,61.13
2023-03-28T00:25:36.618Z,61.90
2023-03-28T00:28:04.437Z,62.02
2023-03-28T00:30:32.255Z,61.41
2023-03-28T00:33:00.093Z,62.35
2023-03-28T00:35:29.567Z,62.67
2023-03-28T00:37:57.997Z,62.28
2023-03-28T00:40:26.826Z,61.55
2023-03-28T00:42:55.356Z,61.78
2023-03-28T00:45:23.689Z,61.86
2023-03-28T00:47:54.743Z,62.99
2023-03-28T00:50:27.357Z,62.69
2023-03-28T00:53:04.557Z,62.68
2023-03-28T00:55:36.979Z,62.92
2023-03-28T00:58:09.047Z,63.07
2023-03-28T01:00:37.549Z,63.02
2023-03-28T01:03:06.732Z,63.00
2023-03-28T01:05:36.683Z,64.40
2023-03-28T01:08:10.606Z,63.54
2023-03-28T01:10:38.999Z,63.00
2023-03-28T01:13:09.096Z,63.59
2023-03-28T01:15:36.922Z,63.87
2023-03-28T01:18:11.405Z,63.29
2023-03-28T01:21:08.842Z,63.75
2023-03-28T01:24:20.290Z,65.31
2023-03-28T01:26:53.566Z,65.08
2023-03-28T01:30:00.905Z,65.34
2023-03-28T01:33:12.135Z,64.38
2023-03-28T01:36:34.038Z,64.70
2023-03-28T01:39:16.022Z,65.38
2023-03-28T01:41:52.090Z,65.01
2023-03-28T01:44:32.029Z,64.54
2023-03-28T01:47:06.552Z,64.48
2023-03-28T01:49:40.143Z,64.45
2023-03-28T01:52:18.463Z,64.41
2023-03-28T01:54:55.647Z,65.26
2023-03-28T01:57:27.680Z,65.58
2023-03-28T02:00:11.266Z,65.43
2023-03-28T02:03:05.521Z,65.50
2023-03-28T02:05:40.167Z,65.51
2023-03-28T02:08:14.549Z,66.03
2023-03-28T02:11:04.431Z,66.15
2023-03-28T02:13:58.542Z,66.00
2023-03-28T02:16:47.232Z,66.16
2023-03-28T02:19:37.813Z,65.74
2023-03-28T02:22:33.643Z,65.72
2023-03-28T02:25:31.784Z,66.87
2023-03-28T02:28:25.228Z,66.02
2023-03-28T02:31:11.220Z,65.50
2023-03-28T02:33:42.212Z,66.71
2023-03-28T02:36:24.772Z,66.82
2023-03-28T02:39:03.833Z,66.69
2023-03-28T02:41:45.170Z,67.57
2023-03-28T02:44:34.470Z,67.72
2023-03-28T02:47:12.399Z,68.27
2023-03-28T02:49:50.966Z,67.84
2023-03-28T02:52:35.224Z,68.04
2023-03-28T02:55:16.900Z,68.24
2023-03-28T02:58:00.133Z,68.40
2023-03-28T03:00:29.628Z,67.91
2023-03-28T03:02:58.230Z,68.05
2023-03-28T03:05:26.233Z,68.20
2023-03-28T03:07:54.014Z,68.59
2023-03-28T03:10:22.038Z,68.45
2023-03-28T03:12:49.934Z,68.10
2023-03-28T03:15:18.003Z,68.41
2023-03-28T03:17:50.997Z,68.55
2023-03-28T03:20:26.046Z,68.27
2023-03-28T03:22:54.376Z,68.02
2023-03-28T03:25:22.326Z,68.24
2023-03-28T03:27:56.850Z,68.87
2023-03-28T03:30:24.736Z,67.98
2023-03-28T03:33:16.987Z,68.29
2023-03-28T03:35:47.642Z,68.27
2023-03-28T03:38:16.799Z,68.19
2023-03-28T03:40:44.602Z,68.06
2023-03-28T03:43:12.526Z,67.38
2023-03-28T03:45:41.675Z,67.04
2023-03-28T03:48:10.208Z,67.33
2023-03-28T03:50:40.508Z,67.10
2023-03-28T03:53:16.857Z,68.20
2023-03-28T03:55:54.037Z,68.32
2023-03-28T03:58:22.093Z,68.38
2023-03-28T04:00:52.088Z,68.22
2023-03-28T04:03:32.070Z,68.42
2023-03-28T04:06:02.120Z,67.77
2023-03-28T04:08:30.787Z,68.32
2023-03-28T04:10:58.773Z,68.08
2023-03-28T04:13:27.248Z,68.19
2023-03-28T04:16:00.259Z,68.43
2023-03-28T04:18:37.271Z,68.38
2023-03-28T04:21:09.719Z,69.85
2023-03-28T04:23:44.459Z,69.04
2023-03-28T04:26:35.731Z,68.92
2023-03-28T04:29:12.919Z,68.49
2023-03-28T04:31:49.906Z,68.58
2023-03-28T04:34:25.536Z,68.98
2023-03-28T04:37:21.021Z,68.50
2023-03-28T04:39:54.174Z,68.02
2023-03-28T04:42:31.693Z,67.88
2023-03-28T04:45:17.159Z,68.22
2023-03-28T04:47:48.130Z,68.86
2023-03-28T04:50:21.657Z,68.40
2023-03-28T04:52:50.859Z,69.41
2023-03-28T04:55:20.010Z,68.65
2023-03-28T04:57:49.876Z,68.43
2023-03-28T05:00:19.798Z,68.22
2023-03-28T05:03:05.650Z,68.27
2023-03-28T05:05:40.068Z,68.77
2023-03-28T05:08:13.492Z,69.82
2023-03-28T05:10:41.682Z,69.39
2023-03-28T05:13:11.551Z,68.96
2023-03-28T05:15:48.258Z,69.36
2023-03-28T05:18:30.375Z,69.12
2023-03-28T05:20:58.426Z,68.64
2023-03-28T05:23:27.796Z,68.27
2023-03-28T05:25:56.282Z,68.57
2023-03-28T05:28:24.148Z,68.22
2023-03-28T05:30:53.139Z,67.48
2023-03-28T05:33:21.026Z,68.31
2023-03-28T05:35:50.059Z,68.71
2023-03-28T05:38:18.267Z,68.70
2023-03-28T05:40:52.981Z,68.16
2023-03-28T05:43:21.075Z,68.25
2023-03-28T05:45:49.080Z,68.11
2023-03-28T05:48:22.888Z,67.53
2023-03-28T05:50:51.039Z,67.47
2023-03-28T05:53:18.856Z,66.42
2023-03-28T05:55:46.690Z,66.08
2023-03-28T05:58:16.169Z,66.00
2023-03-28T06:00:44.852Z,65.87
2023-03-28T06:03:16.760Z,66.33
2023-03-28T06:05:46.508Z,65.76
2023-03-28T06:08:23.013Z,64.88
2023-03-28T06:10:51.014Z,64.97
2023-03-28T06:13:24.012Z,64.71
2023-03-28T06:15:52.574Z,64.68
2023-03-28T06:18:28.392Z,64.58
2023-03-28T06:20:56.307Z,64.42
2023-03-28T06:23:24.562Z,64.14
2023-03-28T06:25:52.515Z,64.05
2023-03-28T06:28:21.777Z,64.39
2023-03-28T06:31:15.883Z,63.09
2023-03-28T06:33:44.718Z,62.53
2023-03-28T06:36:13.105Z,62.26
2023-03-28T06:38:42.718Z,62.12
2023-03-28T06:41:10.858Z,61.65
2023-03-28T06:43:38.649Z,61.15
2023-03-28T06:46:10.835Z,60.95
2023-03-28T06:48:45.925Z,60.58
2023-03-28T06:51:26.328Z,59.88
2023-03-28T06:53:54.501Z,59.65
2023-03-28T06:56:26.491Z,59.06
2023-03-28T06:58:56.271Z,59.14
2023-03-28T07:01:27.222Z,59.03
2023-03-28T07:04:02.978Z,57.99
2023-03-28T07:06:31.035Z,57.37
2023-03-28T07:08:59.348Z,57.38
2023-03-28T07:11:37.739Z,57.16
2023-03-28T07:14:05.812Z,56.15
2023-03-28T07:16:33.635Z,55.64
2023-03-28T07:19:02.872Z,55.40
2023-03-28T07:21:34.216Z,55.59
2023-03-28T07:24:04.248Z,55.40
2023-03-28T07:27:12.284Z,55.00
2023-03-28T07:29:43.136Z,54.67
2023-03-28T07:32:11.199Z,53.79
2023-03-28T07:34:40.677Z,53.19
2023-03-28T07:37:11.161Z,54.05
2023-03-28T07:40:02.224Z,54.51
2023-03-28T07:42:30.565Z,54.41
2023-03-28T07:44:58.339Z,53.27
2023-03-28T07:47:26.429Z,53.53
2023-03-28T07:49:55.664Z,52.53
2023-03-28T07:52:23.911Z,52.40
2023-03-28T07:54:51.894Z,51.16
2023-03-28T07:57:19.923Z,51.71
2023-03-28T07:59:57.587Z,51.50
2023-03-28T08:02:26.270Z,51.67
2023-03-28T08:04:55.798Z,50.60
2023-03-28T08:07:28.213Z,50.56
2023-03-28T08:09:58.413Z,50.74
2023-03-28T08:12:29.028Z,50.30
2023-03-28T08:14:57.900Z,49.06
2023-03-28T08:17:26.599Z,49.10
2023-03-28T08:19:56.302Z,49.53
2023-03-28T08:22:56.285Z,49.45
2023-03-28T08:25:35.765Z,48.74
2023-03-28T08:28:03.958Z,49.47
2023-03-28T08:30:31.977Z,48.91
2023-03-28T08:33:04.650Z,48.10
2023-03-28T08:35:35.698Z,46.96
2023-03-28T08:38:11.348Z,46.58
2023-03-28T08:40:45.522Z,47.14
2023-03-28T08:43:46.034Z,46.66
2023-03-28T08:46:17.325Z,46.07
2023-03-28T08:48:47.441Z,45.46
2023-03-28T08:51:23.336Z,43.54
2023-03-28T08:53:56.644Z,43.74
2023-03-28T08:56:25.835Z,42.13
2023-03-28T08:59:06.884Z,42.35
2023-03-28T09:01:36.570Z,39.30
2023-03-28T09:04:05.428Z,40.42
2023-03-28T09:06:40.901Z,39.52
2023-03-28T09:09:34.113Z,41.15
2023-03-28T09:12:38.952Z,40.95
2023-03-28T09:15:28.234Z,41.37
2023-03-28T09:18:12.577Z,40.21
2023-03-28T09:20:47.495Z,39.88
2023-03-28T09:23:49.601Z,41.62
2023-03-28T09:26:25.246Z,41.39
2023-03-28T09:29:03.222Z,40.19
2023-03-28T09:31:34.504Z,38.47
2023-03-28T09:34:04.889Z,38.06
2023-03-28T09:36:48.844Z,39.79
2023-03-28T09:39:28.985Z,38.15
2023-03-28T09:42:03.658Z,36.58
2023-03-28T09:44:55.120Z,36.81
2023-03-28T09:47:46.594Z,36.60
2023-03-28T09:50:18.656Z,38.57
2023-03-28T09:52:51.013Z,38.01
2023-03-28T09:55:22.231Z,37.63
2023-03-28T09:58:02.644Z,38.10
2023-03-28T10:00:34.858Z,37.45
2023-03-28T10:03:32.423Z,36.08
2023-03-28T10:06:19.317Z,37.58
2023-03-28T10:08:48.023Z,35.77
2023-03-28T10:11:28.460Z,36.90
2023-03-28T10:13:57.579Z,36.28
2023-03-28T10:16:29.798Z,35.21
2023-03-28T10:19:24.754Z,37.47
2023-03-28T10:22:07.346Z,36.13
2023-03-28T10:24:39.632Z,35.73
2023-03-28T10:27:17.197Z,36.26
2023-03-28T10:29:46.214Z,35.69
2023-03-28T10:32:25.900Z,35.77
2023-03-28T10:35:30.899Z,34.31
2023-03-28T10:38:19.055Z,34.58
2023-03-28T10:41:11.547Z,34.61
2023-03-28T10:43:50.305Z,34.40
2023-03-28T10:46:41.871Z,33.96
2023-03-28T10:49:24.212Z,31.71
2023-03-28T10:52:17.713Z,31.65
2023-03-28T10:54:53.045Z,31.75
2023-03-28T10:57:45.921Z,32.02
2023-03-28T11:00:21.293Z,31.75
2023-03-28T11:03:27.095Z,32.89
2023-03-28T11:06:08.496Z,31.75
2023-03-28T11:08:53.185Z,31.53
2023-03-28T11:11:55.349Z,30.78
2023-03-28T11:14:40.941Z,29.28
2023-03-28T11:17:19.567Z,32.57
2023-03-28T11:20:17.175Z,28.28
2023-03-28T11:23:06.306Z,23.63
2023-03-28T11:25:50.839Z,26.56
2023-03-28T11:28:51.606Z,24.21
2023-03-28T11:31:28.219Z,22.86
2023-03-28T11:34:06.790Z,23.78
2023-03-28T11:36:41.264Z,22.80
2023-03-28T11:39:19.871Z,22.60
2023-03-28T11:41:51.101Z,24.92
2023-03-28T11:44:27.178Z,23.82
2023-03-28T11:47:00.320Z,23.43
2023-03-28T11:49:34.922Z,26.27
2023-03-28T11:52:11.253Z,24.31
2023-03-28T11:54:44.123Z,23.80
2023-03-28T11:57:19.759Z,23.58
2023-03-28T12:00:07.343Z,23.65
2023-03-28T12:02:52.657Z,25.62
2023-03-28T12:05:30.738Z,21.98
2023-03-28T12:08:04.270Z,23.29
2023-03-28T12:10:36.334Z,24.87
2023-03-28T12:13:12.758Z,23.40
2023-03-28T12:15:54.298Z,21.30
2023-03-28T12:18:31.014Z,22.02
2023-03-28T12:21:06.692Z,22.67
2023-03-28T12:23:50.919Z,21.18
2023-03-28T12:26:38.008Z,20.00
2023-03-28T12:29:15.287Z,19.67
2023-03-28T12:31:47.998Z,20.31
2023-03-28T12:34:32.218Z,21.04
2023-03-28T12:37:31.118Z,20.53
2023-03-28T12:40:14.874Z,21.39
2023-03-28T12:42:46.663Z,20.58
2023-03-28T12:45:19.656Z,18.62
2023-03-28T12:47:53.313Z,19.86
2023-03-28T12:50:28.603Z,21.01
2023-03-28T12:52:59.415Z,23.19
2023-03-28T12:55:45.197Z,24.23
2023-03-28T12:58:22.580Z,21.84
2023-03-28T13:01:11.229Z,22.63
2023-03-28T13:03:52.295Z,24.32
2023-03-28T13:06:37.154Z,23.91
2023-03-28T13:09:35.941Z,22.84
2023-03-28T13:12:07.630Z,22.64
2023-03-28T13:14:37.865Z,22.22
2023-03-28T13:17:19.784Z,21.22
2023-03-28T13:19:52.697Z,22.45
2023-03-28T13:22:28.991Z,21.45
2023-03-28T13:25:22.325Z,20.98
2023-03-28T13:27:51.942Z,21.57
2023-03-28T13:30:24.284Z,21.34
2023-03-28T13:32:54.236Z,20.42
2023-03-28T13:36:07.677Z,20.43
2023-03-28T13:38:46.309Z,18.68
2023-03-28T13:41:37.131Z,19.42
2023-03-28T13:44:11.397Z,18.31
2023-03-28T13:46:42.965Z,18.88
2023-03-28T13:49:18.937Z,18.29
2023-03-28T13:51:49.910Z,19.17
2023-03-28T13:54:17.656Z,17.80
2023-03-28T13:56:48.823Z,18.91
2023-03-28T13:59:18.965Z,17.54
2023-03-28T14:01:49.542Z,17.46
2023-03-28T14:04:20.478Z,19.37
2023-03-28T14:06:49.298Z,21.53
2023-03-28T14:09:21.901Z,21.03
2023-03-28T14:11:52.155Z,23.54
2023-03-28T14:14:28.566Z,21.11
2023-03-28T14:16:56.993Z,20.36
2023-03-28T14:19:35.198Z,19.10
2023-03-28T14:22:03.544Z,18.74
2023-03-28T14:24:31.337Z,20.49
2023-03-28T14:27:11.913Z,21.82
2023-03-28T14:29:53.576Z,23.34
2023-03-28T14:32:26.729Z,22.88
2023-03-28T14:34:55.971Z,24.54
2023-03-28T14:37:24.809Z,22.85
2023-03-28T14:39:52.638Z,22.14
2023-03-28T14:42:24.334Z,23.95
2023-03-28T14:44:54.968Z,23.43
2023-03-28T14:47:28.965Z,20.99
2023-03-28T14:49:56.969Z,19.82
2023-03-28T14:52:30.710Z,21.17
2023-03-28T14:54:59.209Z,21.87
2023-03-28T14:57:30.339Z,22.64
2023-03-28T14:59:59.934Z,22.51
2023-03-28T15:02:32.527Z,22.56
2023-03-28T15:05:03.298Z,21.92
2023-03-28T15:07:34.948Z,21.80
2023-03-28T15:10:07.396Z,21.67
2023-03-28T15:12:43.728Z,21.43
2023-03-28T15:15:17.926Z,21.41
2023-03-28T15:17:46.656Z,22.67
2023-03-28T15:20:18.069Z,23.85
2023-03-28T15:22:50.441Z,21.81
2023-03-28T15:25:18.488Z,21.37
2023-03-28T15:27:52.684Z,22.91
2023-03-28T15:30:21.847Z,21.58
2023-03-28T15:32:50.932Z,21.73
2023-03-28T15:35:26.894Z,21.94
2023-03-28T15:38:02.743Z,22.68
2023-03-28T15:40:37.170Z,23.38
2023-03-28T15:43:07.150Z,23.90
2023-03-28T15:45:40.881Z,25.67
2023-03-28T15:48:16.116Z,25.18
2023-03-28T15:50:49.912Z,24.89
2023-03-28T15:53:18.945Z,26.13
2023-03-28T15:55:49.024Z,27.08
2023-03-28T15:58:20.759Z,26.90
2023-03-28T16:00:50.576Z,25.85
2023-03-28T16:03:35.312Z,26.65
2023-03-28T16:06:31.542Z,26.59
2023-03-28T16:09:15.536Z,27.21
2023-03-28T16:11:44.056Z,27.92
2023-03-28T16:14:41.157Z,28.54
2023-03-28T16:17:25.603Z,29.23
2023-03-28T16:20:15.353Z,28.42
2023-03-28T16:22:43.315Z,29.46
2023-03-28T16:25:12.183Z,29.83
2023-03-28T16:27:40.505Z,29.34
2023-03-28T16:30:20.505Z,29.81
2023-03-28T16:32:48.462Z,30.15
2023-03-28T16:35:16.496Z,30.58
2023-03-28T16:37:44.414Z,30.25
2023-03-28T16:40:12.960Z,31.44
2023-03-28T16:42:40.778Z,30.91
2023-03-28T16:45:12.957Z,31.67
2023-03-28T16:47:41.475Z,31.58
2023-03-28T16:50:10.530Z,30.85
2023-03-28T16:52:39.019Z,32.81
2023-03-28T16:55:07.844Z,31.36
2023-03-28T16:57:36.873Z,31.75
2023-03-28T17:00:05.228Z,31.88
2023-03-28T17:02:34.730Z,32.37
2023-03-28T17:05:02.567Z,32.23
2023-03-28T17:07:30.512Z,31.94
2023-03-28T17:09:58.737Z,32.50
2023-03-28T17:12:27.069Z,33.16
2023-03-28T17:14:54.824Z,33.06
2023-03-28T17:17:22.552Z,33.15
2023-03-28T17:19:51.714Z,33.02
2023-03-28T17:22:19.701Z,33.23
2023-03-28T17:24:47.560Z,32.72
2023-03-28T17:27:15.433Z,32.80
2023-03-28T17:29:43.179Z,33.47
2023-03-28T17:32:10.990Z,34.29
2023-03-28T17:34:39.060Z,34.00
2023-03-28T17:37:08.208Z,34.18
2023-03-28T17:39:36.546Z,34.21
2023-03-28T17:42:04.594Z,35.17
2023-03-28T17:44:32.706Z,34.28
2023-03-28T17:47:00.812Z,34.32
2023-03-28T17:49:28.678Z,35.05
2023-03-28T17:51:57.161Z,34.81
2023-03-28T17:54:27.095Z,35.05
2023-03-28T17:56:55.273Z,34.29
2023-03-28T17:59:23.458Z,34.34
2023-03-28T18:01:51.368Z,35.28
2023-03-28T18:04:19.220Z,35.06
2023-03-28T18:07:02.311Z,34.63
2023-03-28T18:09:45.656Z,35.14
2023-03-28T18:12:13.950Z,34.99
2023-03-28T18:14:41.791Z,35.06
2023-03-28T18:17:10.150Z,34.86
2023-03-28T18:19:37.965Z,35.43
2023-03-28T18:22:05.721Z,34.99
2023-03-28T18:24:34.077Z,35.03
2023-03-28T18:27:03.317Z,35.14
2023-03-28T18:29:32.118Z,35.08
2023-03-28T18:31:59.974Z,35.00
2023-03-28T18:34:27.723Z,35.36
2023-03-28T18:36:56.334Z,35.32
2023-03-28T18:39:24.218Z,35.17
2023-03-28T18:41:52.091Z,35.92
2023-03-28T18:44:21.230Z,35.72
2023-03-28T18:46:54.656Z,35.54
2023-03-28T18:49:22.710Z,35.40
2023-03-28T18:51:50.950Z,36.16
2023-03-28T18:54:18.662Z,36.01
2023-03-28T18:56:46.470Z,35.51
2023-03-28T18:59:14.569Z,35.98
2023-03-28T19:01:49.639Z,35.90
2023-03-28T19:04:17.961Z,36.04
2023-03-28T19:06:46.472Z,36.08
2023-03-28T19:09:14.359Z,36.06
2023-03-28T19:11:42.317Z,35.99
2023-03-28T19:14:10.566Z,35.42
2023-03-28T19:16:39.314Z,35.46
2023-03-28T19:19:09.000Z,36.03
2023-03-28T19:21:36.983Z,35.50
2023-03-28T19:24:05.097Z,35.75
2023-03-28T19:26:32.868Z,35.91
2023-03-28T19:29:00.740Z,35.98
2023-03-28T19:31:28.822Z,36.19
2023-03-28T19:33:56.563Z,36.22
2023-03-28T19:36:25.857Z,36.22
2023-03-28T19:38:53.650Z,36.03
2023-03-28T19:41:23.097Z,36.42
2023-03-28T19:43:52.112Z,36.33
2023-03-28T19:46:27.984Z,36.84
2023-03-28T19:48:58.818Z,36.42
2023-03-28T19:51:28.673Z,36.34
2023-03-28T19:53:57.001Z,37.41
2023-03-28T19:56:24.774Z,39.40
2023-03-28T19:58:52.599Z,40.26
2023-03-28T20:01:20.510Z,42.24
2023-03-28T20:03:52.879Z,43.47
2023-03-28T20:06:22.445Z,43.82
2023-03-28T20:08:52.105Z,44.05
2023-03-28T20:11:20.491Z,44.52
2023-03-28T20:13:48.274Z,44.69
2023-03-28T20:16:16.227Z,45.03
2023-03-28T20:18:44.488Z,46.08
2023-03-28T20:21:13.776Z,47.30
2023-03-28T20:23:41.986Z,47.26
2023-03-28T20:26:16.439Z,48.67
2023-03-28T20:28:46.733Z,49.19
2023-03-28T20:31:14.543Z,50.40
2023-03-28T20:33:42.454Z,50.14
2023-03-28T20:36:10.658Z,49.79
2023-03-28T20:38:38.552Z,50.23
2023-03-28T20:41:10.830Z,51.40
2023-03-28T20:43:46.995Z,52.20
2023-03-28T20:46:18.592Z,51.56
2023-03-28T20:48:48.005Z,51.30
2023-03-28T20:51:17.468Z,51.68
2023-03-28T20:53:47.436Z,51.34
2023-03-28T20:56:15.994Z,52.12
2023-03-28T20:58:45.317Z,52.64
2023-03-28T21:01:16.599Z,52.32
2023-03-28T21:03:48.261Z,52.34
2023-03-28T21:06:16.560Z,52.41
2023-03-28T21:08:47.044Z,53.12
2023-03-28T21:11:15.014Z,53.85
2023-03-28T21:13:42.861Z,54.63
2023-03-28T21:16:14.230Z,56.14
2023-03-28T21:18:42.467Z,57.47
2023-03-28T21:21:11.325Z,58.11
2023-03-28T21:23:40.456Z,58.59
2023-03-28T21:26:11.121Z,60.02
2023-03-28T21:28:39.204Z,59.81
2023-03-28T21:31:09.010Z,61.91
2023-03-28T21:33:39.197Z,61.63
2023-03-28T21:36:10.138Z,61.61
2023-03-28T21:38:38.061Z,62.59
2023-03-28T21:41:07.338Z,63.20
2023-03-28T21:43:35.234Z,64.22
2023-03-28T21:46:03.753Z,64.55
2023-03-28T21:48:31.737Z,65.13
2023-03-28T21:51:01.664Z,64.89
2023-03-28T21:53:32.157Z,63.83
2023-03-28T21:56:00.626Z,65.64
2023-03-28T21:58:30.855Z,64.90
2023-03-28T22:00:58.960Z,64.72
2023-03-28T22:03:27.521Z,65.26
2023-03-28T22:05:55.982Z,66.56
2023-03-28T22:08:25.205Z,66.10
2023-03-28T22:10:55.156Z,66.08
2023-03-28T22:13:23.801Z,67.50
2023-03-28T22:15:53.069Z,67.32
2023-03-28T22:18:25.647Z,67.00
2023-03-28T22:20:54.002Z,66.80
2023-03-28T22:23:23.350Z,66.92
2023-03-28T22:25:53.085Z,67.88
2023-03-28T22:28:24.539Z,68.34
2023-03-28T22:30:55.046Z,69.41
2023-03-28T22:33:23.522Z,69.89
2023-03-28T22:35:51.777Z,69.39
2023-03-28T22:38:20.140Z,67.80
2023-03-28T22:40:48.341Z,68.28
2023-03-28T22:43:17.657Z,69.44
2023-03-28T22:45:45.661Z,69.29
2023-03-28T22:48:15.125Z,68.42
2023-03-28T22:50:44.083Z,68.53
2023-03-28T22:53:14.412Z,68.82
2023-03-28T22:55:46.255Z,69.62
2023-03-28T22:58:14.033Z,68.36
2023-03-28T23:00:43.993Z,68.51
2023-03-28T23:03:12.201Z,68.42
2023-03-28T23:05:40.309Z,67.99
2023-03-28T23:08:08.938Z,69.56
2023-03-28T23:10:37.049Z,68.40
2023-03-28T23:13:05.013Z,67.96
2023-03-28T23:15:33.175Z,67.79
2023-03-28T23:18:02.399Z,68.67
2023-03-28T23:20:30.300Z,67.72
2023-03-28T23:22:58.191Z,67.55
2023-03-28T23:25:25.991Z,67.67
2023-03-28T23:27:53.758Z,65.98
2023-03-28T23:30:22.002Z,66.22
2023-03-28T23:32:49.899Z,66.01
2023-03-28T23:35:19.200Z,66.05
2023-03-28T23:37:46.949Z,65.60
2023-03-28T23:40:15.565Z,65.73
2023-03-28T23:42:44.903Z,65.20
2023-03-28T23:45:14.804Z,65.65
2023-03-28T23:47:43.468Z,66.18
2023-03-28T23:50:12.351Z,65.64
2023-03-28T23:52:41.675Z,64.92
2023-03-28T23:55:09.943Z,64.75
2023-03-28T23:57:37.942Z,65.64
